createdAt,value
2018-04-18T00:00:59.767Z,78.92
2018-04-18T00:01:59.776Z,78.54
2018-04-18T00:02:59.789Z,79.02
2018-04-18T00:03:59.803Z,78.92
2018-04-18T00:04:59.810Z,79.59
2018-04-18T00:05:59.822Z,79.97
2018-04-18T00:06:59.836Z,79.93
2018-04-18T00:07:59.841Z,80.02
2018-04-18T00:08:59.848Z,80.41
2018-04-18T00:09:59.860Z,80.50
2018-04-18T00:10:59.869Z,80.50
2018-04-18T00:11:59.883Z,80.79
2018-04-18T00:12:59.895Z,80.79
2018-04-18T00:13:59.898Z,80.22
2018-04-18T00:14:59.912Z,79.83
2018-04-18T00:15:59.920Z,80.31
2018-04-18T00:16:59.928Z,79.68
2018-04-18T00:17:59.937Z,79.68
2018-04-18T00:18:59.954Z,79.74
2018-04-18T00:19:59.957Z,80.02
2018-04-18T00:20:59.965Z,80.50
2018-04-18T00:21:59.979Z,80.50
2018-04-18T00:22:59.989Z,80.31
2018-04-18T00:23:59.995Z,81.07
2018-04-18T00:25:00.013Z,80.02
2018-04-18T00:26:00.014Z,79.93
2018-04-18T00:27:00.025Z,80.12
2018-04-18T00:28:00.035Z,80.31
2018-04-18T00:29:00.049Z,80.50
2018-04-18T00:30:00.055Z,80.69
2018-04-18T00:31:00.072Z,80.31
2018-04-18T00:32:00.073Z,80.69
2018-04-18T00:33:00.084Z,80.69
2018-04-18T00:34:00.095Z,79.64
2018-04-18T00:35:00.106Z,80.12
2018-04-18T00:36:00.112Z,80.22
2018-04-18T00:37:00.129Z,80.22
2018-04-18T00:38:00.132Z,79.55
2018-04-18T00:39:00.140Z,79.93
2018-04-18T00:40:00.151Z,79.93
2018-04-18T00:41:00.163Z,79.93
2018-04-18T00:42:00.170Z,79.27
2018-04-18T00:43:00.182Z,78.88
2018-04-18T00:44:00.197Z,78.59
2018-04-18T00:45:00.200Z,79.03
2018-04-18T00:46:00.211Z,79.17
2018-04-18T00:47:00.224Z,79.83
2018-04-18T00:48:00.232Z,80.12
2018-04-18T00:49:00.245Z,80.02
2018-04-18T00:50:00.250Z,79.83
2018-04-18T00:51:00.259Z,78.88
2018-04-18T00:52:00.272Z,79.64
2018-04-18T00:53:00.276Z,79.99
2018-04-18T00:54:00.291Z,80.46
2018-04-18T00:55:00.305Z,80.18
2018-04-18T00:56:00.308Z,80.36
2018-04-18T00:57:00.315Z,80.31
2018-04-18T00:58:00.332Z,80.50
2018-04-18T00:59:00.341Z,79.93
2018-04-18T01:00:00.353Z,80.27
2018-04-18T01:01:00.365Z,80.65
2018-04-18T01:02:00.364Z,80.94
2018-04-18T01:03:00.372Z,80.94
2018-04-18T01:04:00.383Z,80.36
2018-04-18T01:05:00.390Z,79.99
2018-04-18T01:06:00.406Z,79.60
2018-04-18T01:07:00.413Z,79.60
2018-04-18T01:08:00.429Z,80.65
2018-04-18T01:09:00.431Z,80.08
2018-04-18T01:10:00.440Z,79.51
2018-04-18T01:11:00.448Z,79.22
2018-04-18T01:12:00.461Z,79.89
2018-04-18T01:13:00.469Z,80.46
2018-04-18T01:14:00.485Z,80.46
2018-04-18T01:15:00.489Z,80.27
2018-04-18T01:16:00.501Z,80.84
2018-04-18T01:17:00.511Z,81.51
2018-04-18T01:18:00.517Z,81.41
2018-04-18T01:19:00.526Z,81.41
2018-04-18T01:20:00.540Z,81.79
2018-04-18T01:21:00.548Z,81.56
2018-04-18T01:22:00.563Z,81.28
2018-04-18T01:23:00.564Z,81.70
2018-04-18T01:24:00.578Z,81.66
2018-04-18T01:25:00.585Z,81.28
2018-04-18T01:26:00.601Z,81.28
2018-04-18T01:27:00.599Z,81.95
2018-04-18T01:28:00.621Z,81.95
2018-04-18T01:29:00.618Z,81.85
2018-04-18T01:30:00.629Z,81.85
2018-04-18T01:31:00.635Z,81.37
2018-04-18T01:32:00.654Z,81.95
2018-04-18T01:33:00.657Z,81.85
2018-04-18T01:34:00.666Z,81.56
2018-04-18T01:35:00.675Z,81.09
2018-04-18T01:36:00.722Z,81.56
2018-04-18T01:37:00.696Z,81.18
2018-04-18T01:38:00.706Z,81.56
2018-04-18T01:39:00.715Z,81.56
2018-04-18T01:40:00.736Z,80.71
2018-04-18T01:41:00.764Z,81.37
2018-04-18T01:42:00.770Z,81.09
2018-04-18T01:43:00.751Z,81.28
2018-04-18T01:44:00.763Z,81.18
2018-04-18T01:45:00.767Z,81.47
2018-04-18T01:46:00.779Z,80.90
2018-04-18T01:47:00.792Z,81.28
2018-04-18T01:48:00.798Z,81.37
2018-04-18T01:49:00.806Z,80.99
2018-04-18T01:50:00.818Z,81.85
2018-04-18T01:51:00.827Z,82.61
2018-04-18T01:52:00.836Z,82.23
2018-04-18T01:53:00.842Z,82.04
2018-04-18T01:54:00.857Z,82.14
2018-04-18T01:55:00.863Z,81.85
2018-04-18T01:56:00.873Z,81.66
2018-04-18T01:57:00.881Z,81.18
2018-04-18T01:58:00.888Z,82.42
2018-04-18T01:59:00.899Z,82.04
2018-04-18T02:00:00.925Z,82.04
2018-04-18T02:01:00.920Z,82.61
2018-04-18T02:02:00.925Z,81.56
2018-04-18T02:03:00.935Z,82.23
2018-04-18T02:04:00.944Z,82.23
2018-04-18T02:05:00.955Z,82.04
2018-04-18T02:06:00.970Z,82.61
2018-04-18T02:07:00.971Z,82.51
2018-04-18T02:08:00.983Z,82.51
2018-04-18T02:09:00.991Z,82.23
2018-04-18T02:10:01.001Z,81.85
2018-04-18T02:11:01.014Z,81.37
2018-04-18T02:12:01.040Z,81.76
2018-04-18T02:13:01.026Z,82.23
2018-04-18T02:14:01.038Z,81.18
2018-04-18T02:15:01.046Z,81.24
2018-04-18T02:16:01.057Z,82.38
2018-04-18T02:17:01.066Z,82.76
2018-04-18T02:18:01.072Z,82.28
2018-04-18T02:19:01.111Z,82.48
2018-04-18T02:20:01.094Z,82.57
2018-04-18T02:21:01.106Z,82.86
2018-04-18T02:22:01.114Z,82.67
2018-04-18T02:23:01.122Z,82.38
2018-04-18T02:24:01.130Z,81.90
2018-04-18T02:25:01.136Z,81.85
2018-04-18T02:26:01.148Z,81.62
2018-04-18T02:27:01.157Z,82.28
2018-04-18T02:28:01.165Z,82.00
2018-04-18T02:29:01.171Z,82.28
2018-04-18T02:30:01.194Z,82.19
2018-04-18T02:31:01.193Z,82.09
2018-04-18T02:32:01.207Z,82.09
2018-04-18T02:33:01.209Z,82.19
2018-04-18T02:34:01.223Z,82.48
2018-04-18T02:35:01.227Z,82.76
2018-04-18T02:36:01.241Z,82.67
2018-04-18T02:37:01.244Z,82.19
2018-04-18T02:38:01.258Z,82.19
2018-04-18T02:39:01.262Z,82.19
2018-04-18T02:40:01.273Z,82.28
2018-04-18T02:41:01.283Z,82.95
2018-04-18T02:42:01.290Z,81.81
2018-04-18T02:43:01.298Z,82.00
2018-04-18T02:44:01.314Z,82.57
2018-04-18T02:45:01.318Z,81.52
2018-04-18T02:46:01.329Z,82.67
2018-04-18T02:47:01.338Z,82.57
2018-04-18T02:48:01.346Z,82.48
2018-04-18T02:49:01.351Z,82.76
2018-04-18T02:50:01.369Z,82.38
2018-04-18T02:51:01.367Z,81.71
2018-04-18T02:52:01.376Z,81.24
2018-04-18T02:53:01.397Z,81.14
2018-04-18T02:54:01.396Z,81.33
2018-04-18T02:55:01.407Z,81.43
2018-04-18T02:56:01.418Z,81.62
2018-04-18T02:57:01.421Z,82.86
2018-04-18T02:58:01.433Z,82.38
2018-04-18T02:59:01.446Z,82.48
2018-04-18T03:00:01.448Z,82.38
2018-04-18T03:01:01.463Z,82.76
2018-04-18T03:02:01.465Z,82.38
2018-04-18T03:03:01.477Z,82.19
2018-04-18T03:04:01.487Z,82.48
2018-04-18T03:05:01.493Z,82.57
2018-04-18T03:06:01.507Z,82.19
2018-04-18T03:07:01.518Z,82.57
2018-04-18T03:08:01.521Z,82.19
2018-04-18T03:09:01.528Z,82.19
2018-04-18T03:10:01.539Z,82.09
2018-04-18T03:11:01.581Z,81.62
2018-04-18T03:12:01.554Z,82.00
2018-04-18T03:13:01.568Z,81.52
2018-04-18T03:14:01.574Z,81.48
2018-04-18T03:15:01.585Z,81.20
2018-04-18T03:16:01.595Z,82.15
2018-04-18T03:17:01.621Z,82.86
2018-04-18T03:18:01.611Z,82.09
2018-04-18T03:19:01.627Z,81.96
2018-04-18T03:20:01.632Z,81.29
2018-04-18T03:21:01.644Z,80.91
2018-04-18T03:22:01.645Z,80.91
2018-04-18T03:23:01.652Z,81.38
2018-04-18T03:24:01.664Z,82.05
2018-04-18T03:25:01.689Z,82.24
2018-04-18T03:26:01.680Z,81.96
2018-04-18T03:27:01.689Z,81.96
2018-04-18T03:28:01.696Z,82.43
2018-04-18T03:29:01.736Z,82.81
2018-04-18T03:30:01.723Z,82.34
2018-04-18T03:31:01.729Z,82.15
2018-04-18T03:32:01.730Z,82.91
2018-04-18T03:33:01.745Z,82.71
2018-04-18T03:34:01.756Z,83.10
2018-04-18T03:35:01.767Z,82.91
2018-04-18T03:36:01.769Z,82.91
2018-04-18T03:37:01.793Z,83.00
2018-04-18T03:38:01.788Z,84.05
2018-04-18T03:39:01.795Z,83.95
2018-04-18T03:40:01.804Z,84.52
2018-04-18T03:41:01.811Z,84.24
2018-04-18T03:42:01.820Z,84.86
2018-04-18T03:43:01.833Z,83.67
2018-04-18T03:44:01.840Z,83.00
2018-04-18T03:45:01.852Z,83.86
2018-04-18T03:46:01.858Z,83.58
2018-04-18T03:47:01.872Z,83.00
2018-04-18T03:48:01.871Z,83.19
2018-04-18T03:49:01.882Z,83.62
2018-04-18T03:50:01.890Z,83.19
2018-04-18T03:51:01.917Z,83.39
2018-04-18T03:52:01.906Z,84.20
2018-04-18T03:53:01.922Z,83.44
2018-04-18T03:54:01.925Z,84.20
2018-04-18T03:55:01.933Z,83.34
2018-04-18T03:56:01.944Z,82.91
2018-04-18T03:57:01.960Z,83.44
2018-04-18T03:58:01.962Z,83.67
2018-04-18T03:59:01.969Z,83.67
2018-04-18T04:00:02.003Z,83.00
2018-04-18T04:01:01.984Z,83.44
2018-04-18T04:02:01.995Z,83.00
2018-04-18T04:03:02.002Z,82.71
2018-04-18T04:04:02.017Z,83.34
2018-04-18T04:05:02.016Z,83.48
2018-04-18T04:06:02.023Z,82.91
2018-04-18T04:07:02.036Z,82.91
2018-04-18T04:08:02.044Z,83.19
2018-04-18T04:09:02.055Z,83.76
2018-04-18T04:10:02.076Z,82.81
2018-04-18T04:11:02.069Z,83.00
2018-04-18T04:12:02.079Z,82.91
2018-04-18T04:13:02.087Z,82.71
2018-04-18T04:14:02.097Z,82.15
2018-04-18T04:15:02.105Z,82.53
2018-04-18T04:16:02.121Z,82.43
2018-04-18T04:17:02.129Z,83.00
2018-04-18T04:18:02.132Z,82.71
2018-04-18T04:19:02.142Z,83.10
2018-04-18T04:20:02.145Z,83.00
2018-04-18T04:21:02.155Z,82.91
2018-04-18T04:22:02.173Z,83.00
2018-04-18T04:23:02.176Z,82.43
2018-04-18T04:24:02.182Z,82.24
2018-04-18T04:25:02.187Z,82.24
2018-04-18T04:26:02.201Z,82.81
2018-04-18T04:27:02.206Z,82.96
2018-04-18T04:28:02.226Z,83.06
2018-04-18T04:29:02.226Z,83.53
2018-04-18T04:30:02.232Z,82.77
2018-04-18T04:31:02.271Z,82.87
2018-04-18T04:32:02.250Z,82.87
2018-04-18T04:33:02.265Z,82.87
2018-04-18T04:34:02.267Z,82.68
2018-04-18T04:35:02.290Z,83.06
2018-04-18T04:36:02.286Z,83.62
2018-04-18T04:37:02.302Z,82.96
2018-04-18T04:38:02.307Z,83.62
2018-04-18T04:39:02.310Z,84.29
2018-04-18T04:40:02.317Z,84.29
2018-04-18T04:41:02.327Z,84.86
2018-04-18T04:42:02.364Z,84.39
2018-04-18T04:43:02.347Z,84.58
2018-04-18T04:44:02.352Z,83.91
2018-04-18T04:45:02.391Z,83.72
2018-04-18T04:46:02.370Z,83.82
2018-04-18T04:47:02.376Z,84.01
2018-04-18T04:48:02.385Z,84.01
2018-04-18T04:49:02.391Z,83.62
2018-04-18T04:50:02.402Z,83.82
2018-04-18T04:51:02.419Z,84.10
2018-04-18T04:52:02.418Z,83.62
2018-04-18T04:53:02.429Z,83.34
2018-04-18T04:54:02.437Z,83.15
2018-04-18T04:55:02.447Z,83.53
2018-04-18T04:56:02.463Z,83.44
2018-04-18T04:57:02.464Z,83.44
2018-04-18T04:58:02.470Z,83.53
2018-04-18T04:59:02.481Z,84.01
2018-04-18T05:00:02.492Z,84.01
2018-04-18T05:01:02.506Z,84.10
2018-04-18T05:02:02.506Z,84.58
2018-04-18T05:03:02.531Z,85.05
2018-04-18T05:04:02.522Z,85.15
2018-04-18T05:05:02.531Z,84.95
2018-04-18T05:06:02.538Z,85.91
2018-04-18T05:07:02.552Z,86.00
2018-04-18T05:08:02.567Z,86.47
2018-04-18T05:09:02.561Z,86.00
2018-04-18T05:10:02.575Z,85.91
2018-04-18T05:11:02.580Z,85.91
2018-04-18T05:12:02.596Z,84.86
2018-04-18T05:13:02.600Z,85.34
2018-04-18T05:14:02.625Z,85.91
2018-04-18T05:15:02.621Z,86.47
2018-04-18T05:16:02.625Z,86.29
2018-04-18T05:17:02.633Z,86.67
2018-04-18T05:18:02.639Z,86.57
2018-04-18T05:19:02.660Z,86.57
2018-04-18T05:20:02.677Z,86.19
2018-04-18T05:21:02.664Z,86.29
2018-04-18T05:22:02.678Z,86.57
2018-04-18T05:23:02.685Z,86.57
2018-04-18T05:24:02.694Z,86.67
2018-04-18T05:25:02.712Z,86.67
2018-04-18T05:26:02.711Z,86.67
2018-04-18T05:27:02.720Z,86.95
2018-04-18T05:28:02.726Z,86.99
2018-04-18T05:29:02.741Z,86.90
2018-04-18T05:30:02.743Z,86.61
2018-04-18T05:31:02.755Z,86.33
2018-04-18T05:32:02.815Z,86.52
2018-04-18T05:33:02.769Z,86.33
2018-04-18T05:34:02.778Z,86.99
2018-04-18T05:35:02.782Z,87.09
2018-04-18T05:36:02.799Z,86.99
2018-04-18T05:37:02.805Z,87.38
2018-04-18T05:38:02.836Z,88.04
2018-04-18T05:39:02.823Z,88.04
2018-04-18T05:40:02.836Z,88.23
2018-04-18T05:41:02.845Z,88.80
2018-04-18T05:42:02.845Z,88.52
2018-04-18T05:43:02.857Z,89.28
2018-04-18T05:44:02.866Z,89.00
2018-04-18T05:45:02.877Z,88.80
2018-04-18T05:46:02.888Z,89.56
2018-04-18T05:47:02.896Z,89.47
2018-04-18T05:48:02.906Z,89.85
2018-04-18T05:49:02.909Z,90.23
2018-04-18T05:50:02.919Z,90.14
2018-04-18T05:51:02.936Z,90.23
2018-04-18T05:52:02.941Z,90.33
2018-04-18T05:53:02.945Z,90.52
2018-04-18T05:54:02.963Z,90.89
2018-04-18T05:55:02.960Z,90.80
2018-04-18T05:56:02.969Z,90.99
2018-04-18T05:57:02.985Z,91.94
2018-04-18T05:58:02.990Z,91.85
2018-04-18T05:59:02.991Z,91.75
2018-04-18T06:00:02.999Z,91.94
2018-04-18T06:01:03.014Z,92.61
2018-04-18T06:02:03.015Z,92.70
2018-04-18T06:03:03.029Z,92.80
2018-04-18T06:04:03.039Z,92.65
2018-04-18T06:05:03.050Z,93.04
2018-04-18T06:06:03.056Z,94.18
2018-04-18T06:07:03.066Z,94.56
2018-04-18T06:08:03.071Z,94.74
2018-04-18T06:09:03.078Z,95.41
2018-04-18T06:10:03.090Z,94.93
2018-04-18T06:11:03.098Z,95.22
2018-04-18T06:12:03.105Z,95.60
2018-04-18T06:13:03.122Z,96.36
2018-04-18T06:14:03.131Z,96.60
2018-04-18T06:15:03.135Z,97.08
2018-04-18T06:16:03.141Z,97.46
2018-04-18T06:17:03.154Z,97.74
2018-04-18T06:18:03.159Z,98.13
2018-04-18T06:19:03.186Z,98.32
2018-04-18T06:20:03.177Z,97.93
2018-04-18T06:21:03.190Z,98.13
2018-04-18T06:22:03.195Z,98.55
2018-04-18T06:23:03.203Z,98.18
2018-04-18T06:24:03.218Z,97.51
2018-04-18T06:25:03.226Z,98.36
2018-04-18T06:26:03.237Z,98.27
2018-04-18T06:27:03.240Z,97.60
2018-04-18T06:28:03.252Z,97.79
2018-04-18T06:29:03.262Z,98.84
2018-04-18T06:30:03.270Z,99.79
2018-04-18T06:31:03.292Z,99.32
2018-04-18T06:32:03.288Z,99.32
2018-04-18T06:33:03.304Z,99.60
2018-04-18T06:34:03.310Z,99.99
2018-04-18T06:35:03.314Z,99.99
2018-04-18T06:36:03.322Z,99.99
2018-04-18T06:37:03.330Z,99.99
2018-04-18T06:38:03.341Z,99.99
2018-04-18T06:39:03.361Z,99.99
2018-04-18T06:40:03.426Z,99.99
2018-04-18T06:41:03.371Z,99.99
2018-04-18T06:42:03.379Z,99.99
2018-04-18T06:43:03.388Z,99.99
2018-04-18T06:44:03.398Z,99.99
2018-04-18T06:45:03.409Z,99.99
2018-04-18T06:46:03.418Z,99.99
2018-04-18T06:47:03.426Z,99.99
2018-04-18T06:48:03.440Z,99.99
2018-04-18T06:49:03.446Z,99.99
2018-04-18T06:50:03.455Z,99.99
2018-04-18T06:51:03.470Z,99.99
2018-04-18T06:52:03.478Z,99.99
2018-04-18T06:53:03.485Z,99.99
2018-04-18T06:54:03.492Z,98.70
2018-04-18T06:55:03.504Z,98.90
2018-04-18T06:56:03.519Z,98.80
2018-04-18T06:57:03.533Z,97.94
2018-04-18T06:58:03.529Z,97.56
2018-04-18T06:59:03.537Z,97.37
2018-04-18T07:00:03.553Z,96.70
2018-04-18T07:01:03.557Z,97.46
2018-04-18T07:02:03.570Z,96.75
2018-04-18T07:03:03.575Z,97.03
2018-04-18T07:04:03.597Z,96.98
2018-04-18T07:05:03.596Z,96.98
2018-04-18T07:06:03.620Z,96.27
2018-04-18T07:07:03.619Z,96.17
2018-04-18T07:08:03.626Z,96.84
2018-04-18T07:09:03.635Z,96.08
2018-04-18T07:10:03.654Z,96.46
2018-04-18T07:11:03.657Z,96.66
2018-04-18T07:12:03.666Z,97.99
2018-04-18T07:13:03.674Z,99.04
2018-04-18T07:14:03.680Z,97.51
2018-04-18T07:15:03.695Z,97.71
2018-04-18T07:16:03.721Z,97.56
2018-04-18T07:17:03.784Z,97.94
2018-04-18T07:18:03.731Z,98.03
2018-04-18T07:19:03.735Z,97.56
2018-04-18T07:20:03.746Z,97.27
2018-04-18T07:21:03.755Z,96.42
2018-04-18T07:22:03.775Z,96.80
2018-04-18T07:23:03.774Z,96.61
2018-04-18T07:24:03.789Z,94.98
2018-04-18T07:25:03.791Z,94.89
2018-04-18T07:26:03.802Z,95.03
2018-04-18T07:27:03.811Z,95.41
2018-04-18T07:28:03.832Z,94.46
2018-04-18T07:29:03.834Z,93.70
2018-04-18T07:30:03.846Z,94.07
2018-04-18T07:31:03.853Z,94.17
2018-04-18T07:32:03.871Z,93.16
2018-04-18T07:33:03.875Z,93.74
2018-04-18T07:34:03.891Z,92.50
2018-04-18T07:35:03.895Z,91.06
2018-04-18T07:36:03.903Z,90.59
2018-04-18T07:37:03.913Z,92.79
2018-04-18T07:38:03.923Z,91.93
2018-04-18T07:39:03.937Z,92.50
2018-04-18T07:40:03.988Z,91.16
2018-04-18T07:41:03.954Z,91.83
2018-04-18T07:42:03.963Z,91.35
2018-04-18T07:43:04.008Z,92.30
2018-04-18T07:44:03.990Z,92.02
2018-04-18T07:45:03.992Z,92.69
2018-04-18T07:46:04.012Z,94.07
2018-04-18T07:47:04.018Z,93.16
2018-04-18T07:48:04.031Z,92.93
2018-04-18T07:49:04.034Z,91.59
2018-04-18T07:50:04.048Z,90.82
2018-04-18T07:51:04.057Z,91.02
2018-04-18T07:52:04.067Z,91.88
2018-04-18T07:53:04.077Z,92.16
2018-04-18T07:54:04.106Z,91.16
2018-04-18T07:55:04.107Z,90.67
2018-04-18T07:56:04.111Z,91.06
2018-04-18T07:57:04.118Z,89.53
2018-04-18T07:58:04.130Z,90.20
2018-04-18T07:59:04.143Z,88.67
2018-04-18T08:00:04.164Z,89.62
2018-04-18T08:01:04.161Z,89.58
2018-04-18T08:02:04.172Z,89.81
2018-04-18T08:03:04.187Z,88.81
2018-04-18T08:04:04.195Z,87.56
2018-04-18T08:05:04.205Z,86.13
2018-04-18T08:06:04.213Z,86.41
2018-04-18T08:07:04.249Z,87.37
2018-04-18T08:08:04.234Z,88.62
2018-04-18T08:09:04.249Z,88.18
2018-04-18T08:10:04.255Z,86.17
2018-04-18T08:11:04.269Z,87.03
2018-04-18T08:12:04.279Z,84.64
2018-04-18T08:13:04.287Z,85.31
2018-04-18T08:14:04.296Z,86.46
2018-04-18T08:15:04.316Z,85.31
2018-04-18T08:16:04.318Z,83.11
2018-04-18T08:17:04.328Z,82.82
2018-04-18T08:18:04.343Z,83.01
2018-04-18T08:19:04.354Z,83.20
2018-04-18T08:20:04.364Z,83.30
2018-04-18T08:21:04.387Z,84.58
2018-04-18T08:22:04.384Z,83.72
2018-04-18T08:23:04.398Z,84.97
2018-04-18T08:24:04.408Z,84.97
2018-04-18T08:25:04.417Z,84.01
2018-04-18T08:26:04.433Z,84.49
2018-04-18T08:27:04.442Z,84.49
2018-04-18T08:28:04.452Z,84.39
2018-04-18T08:29:04.462Z,83.38
2018-04-18T08:30:04.474Z,82.90
2018-04-18T08:31:04.484Z,82.48
2018-04-18T08:32:04.496Z,81.56
2018-04-18T08:33:04.517Z,83.19
2018-04-18T08:34:04.566Z,82.81
2018-04-18T08:35:04.527Z,82.23
2018-04-18T08:36:04.543Z,81.79
2018-04-18T08:37:04.554Z,80.83
2018-04-18T08:38:04.560Z,79.74
2018-04-18T08:39:04.571Z,78.72
2018-04-18T08:40:04.591Z,76.90
2018-04-18T08:41:04.593Z,77.48
2018-04-18T08:42:04.607Z,74.22
2018-04-18T08:43:04.620Z,71.09
2018-04-18T08:44:04.628Z,71.95
2018-04-18T08:45:04.639Z,73.39
2018-04-18T08:46:04.652Z,68.44
2018-04-18T08:47:04.666Z,70.42
2018-04-18T08:48:04.675Z,67.67
2018-04-18T08:49:04.690Z,67.00
2018-04-18T08:50:04.697Z,67.47
2018-04-18T08:51:04.710Z,69.59
2018-04-18T08:52:04.722Z,72.37
2018-04-18T08:53:04.742Z,69.30
2018-04-18T08:54:04.747Z,67.67
2018-04-18T08:55:04.756Z,68.44
2018-04-18T08:56:04.766Z,67.47
2018-04-18T08:57:04.776Z,67.57
2018-04-18T08:58:04.790Z,68.91
2018-04-18T08:59:04.812Z,67.76
2018-04-18T09:00:04.812Z,67.86
2018-04-18T09:01:04.824Z,68.44
2018-04-18T09:02:04.849Z,66.03
2018-04-18T09:03:04.849Z,65.84
2018-04-18T09:04:04.857Z,67.19
2018-04-18T09:05:04.877Z,67.29
2018-04-18T09:06:04.886Z,66.61
2018-04-18T09:07:04.898Z,64.34
2018-04-18T09:08:04.908Z,64.43
2018-04-18T09:09:04.917Z,61.49
2018-04-18T09:10:04.937Z,61.49
2018-04-18T09:11:04.947Z,60.53
2018-04-18T09:12:04.955Z,59.57
2018-04-18T09:13:04.969Z,62.74
2018-04-18T09:14:04.976Z,62.45
2018-04-18T09:15:04.990Z,64.95
2018-04-18T09:16:05.003Z,64.56
2018-04-18T09:17:05.021Z,63.12
2018-04-18T09:18:05.025Z,59.38
2018-04-18T09:19:05.039Z,63.12
2018-04-18T09:20:05.049Z,64.09
2018-04-18T09:21:05.060Z,62.26
2018-04-18T09:22:05.077Z,60.63
2018-04-18T09:23:05.093Z,58.42
2018-04-18T09:24:05.099Z,59.09
2018-04-18T09:25:05.113Z,61.20
2018-04-18T09:26:05.123Z,60.82
2018-04-18T09:27:05.135Z,60.43
2018-04-18T09:28:05.147Z,61.33
2018-04-18T09:29:05.164Z,62.96
2018-04-18T09:30:05.171Z,60.66
2018-04-18T09:31:05.185Z,61.23
2018-04-18T09:32:05.194Z,59.22
2018-04-18T09:33:05.210Z,61.14
2018-04-18T09:34:05.222Z,59.99
2018-04-18T09:35:05.238Z,59.22
2018-04-18T09:36:05.245Z,59.89
2018-04-18T09:37:05.259Z,60.66
2018-04-18T09:38:05.278Z,63.64
2018-04-18T09:39:05.286Z,64.69
2018-04-18T09:40:05.301Z,63.15
2018-04-18T09:41:05.307Z,59.79
2018-04-18T09:42:05.319Z,61.16
2018-04-18T09:43:05.333Z,57.60
2018-04-18T09:44:05.351Z,54.14
2018-04-18T09:45:05.361Z,53.96
2018-04-18T09:46:05.371Z,57.42
2018-04-18T09:47:05.397Z,57.13
2018-04-18T09:48:05.397Z,55.78
2018-04-18T09:49:05.408Z,54.24
2018-04-18T09:50:05.436Z,55.81
2018-04-18T09:51:05.441Z,54.36
2018-04-18T09:52:05.448Z,51.57
2018-04-18T09:53:05.461Z,49.94
2018-04-18T09:54:05.473Z,50.99
2018-04-18T09:55:05.488Z,52.25
2018-04-18T09:56:05.499Z,52.83
2018-04-18T09:57:05.524Z,52.34
2018-04-18T09:58:05.525Z,54.36
2018-04-18T09:59:05.536Z,55.81
2018-04-18T10:00:05.561Z,52.83
2018-04-18T10:01:05.566Z,52.25
2018-04-18T10:02:05.577Z,55.71
2018-04-18T10:03:05.615Z,57.15
2018-04-18T10:04:05.606Z,56.48
2018-04-18T10:05:05.617Z,53.69
2018-04-18T10:06:05.626Z,51.89
2018-04-18T10:07:05.638Z,50.54
2018-04-18T10:08:05.653Z,51.41
2018-04-18T10:09:05.665Z,54.27
2018-04-18T10:10:05.678Z,55.52
2018-04-18T10:11:05.692Z,52.08
2018-04-18T10:12:05.715Z,51.50
2018-04-18T10:13:05.719Z,52.92
2018-04-18T10:14:05.739Z,52.75
2018-04-18T10:15:05.748Z,52.27
2018-04-18T10:16:05.765Z,53.43
2018-04-18T10:17:05.771Z,54.00
2018-04-18T10:18:05.790Z,51.98
2018-04-18T10:19:05.794Z,50.63
2018-04-18T10:20:05.825Z,51.60
2018-04-18T10:21:05.823Z,49.87
2018-04-18T10:22:05.845Z,48.71
2018-04-18T10:23:05.853Z,49.77
2018-04-18T10:24:05.868Z,52.08
2018-04-18T10:25:05.880Z,51.24
2018-04-18T10:26:05.890Z,50.25
2018-04-18T10:27:05.903Z,49.89
2018-04-18T10:28:05.935Z,52.40
2018-04-18T10:29:05.930Z,51.92
2018-04-18T10:30:05.946Z,53.84
2018-04-18T10:31:05.960Z,52.40
2018-04-18T10:32:05.969Z,50.85
2018-04-18T10:33:05.985Z,51.62
2018-04-18T10:34:05.999Z,52.20
2018-04-18T10:35:06.016Z,51.92
2018-04-18T10:36:06.028Z,50.85
2018-04-18T10:37:06.039Z,51.62
2018-04-18T10:38:06.091Z,51.94
2018-04-18T10:39:06.065Z,52.42
2018-04-18T10:40:06.076Z,52.13
2018-04-18T10:41:06.091Z,53.19
2018-04-18T10:42:06.113Z,53.67
2018-04-18T10:43:06.117Z,52.13
2018-04-18T10:44:06.140Z,52.61
2018-04-18T10:45:06.150Z,53.09
2018-04-18T10:46:06.160Z,53.39
2018-04-18T10:47:06.178Z,52.69
2018-04-18T10:48:06.186Z,52.78
2018-04-18T10:49:06.215Z,52.23
2018-04-18T10:50:06.258Z,53.96
2018-04-18T10:51:06.226Z,53.00
2018-04-18T10:52:06.242Z,52.13
2018-04-18T10:53:06.256Z,52.42
2018-04-18T10:54:06.273Z,51.75
2018-04-18T10:55:06.293Z,51.56
2018-04-18T10:56:06.297Z,51.65
2018-04-18T10:57:06.315Z,51.10
2018-04-18T10:58:06.327Z,50.06
2018-04-18T10:59:06.341Z,50.26
2018-04-18T11:00:06.360Z,51.32
2018-04-18T11:01:07.272Z,49.90
2018-04-18T11:02:06.388Z,49.05
2018-04-18T11:03:06.401Z,47.43
2018-04-18T11:04:06.423Z,45.93
2018-04-18T11:05:06.438Z,43.63
2018-04-18T11:06:06.445Z,40.96
2018-04-18T11:07:06.462Z,42.72
2018-04-18T11:08:06.549Z,40.77
2018-04-18T11:09:06.503Z,41.17
2018-04-18T11:10:06.515Z,40.40
2018-04-18T11:11:06.532Z,40.64
2018-04-18T11:12:06.555Z,36.99
2018-04-18T11:13:06.573Z,37.10
2018-04-18T11:14:06.589Z,37.10
2018-04-18T11:15:06.608Z,36.48
2018-04-18T11:16:06.629Z,37.28
2018-04-18T11:17:06.647Z,35.45
2018-04-18T11:18:06.667Z,35.84
2018-04-18T11:19:06.731Z,34.88
2018-04-18T11:20:06.707Z,35.08
2018-04-18T11:21:06.732Z,35.99
2018-04-18T11:22:06.752Z,35.19
2018-04-18T11:23:06.783Z,36.16
2018-04-18T11:24:06.808Z,35.33
2018-04-18T11:25:06.822Z,33.96
2018-04-18T11:26:06.843Z,33.95
2018-04-18T11:27:06.875Z,34.90
2018-04-18T11:28:06.890Z,34.90
2018-04-18T11:29:06.911Z,35.47
2018-04-18T11:30:06.946Z,34.38
2018-04-18T11:31:06.962Z,35.64
2018-04-18T11:32:06.992Z,35.57
2018-04-18T11:33:07.014Z,35.97
2018-04-18T11:34:07.033Z,34.80
2018-04-18T11:35:07.074Z,33.48
2018-04-18T11:36:07.083Z,33.58
2018-04-18T11:37:07.118Z,33.58
2018-04-18T11:38:07.133Z,31.93
2018-04-18T11:39:07.160Z,31.48
2018-04-18T11:40:07.186Z,31.20
2018-04-18T11:41:07.206Z,30.00
2018-04-18T11:42:07.234Z,30.41
2018-04-18T11:43:07.261Z,30.63
2018-04-18T11:44:07.280Z,29.27
2018-04-18T11:45:07.319Z,30.03
2018-04-18T11:46:07.333Z,29.64
2018-04-18T11:47:07.359Z,28.89
2018-04-18T11:48:07.384Z,29.11
2018-04-18T11:49:07.415Z,29.27
2018-04-18T11:50:07.432Z,28.91
2018-04-18T11:51:07.481Z,27.02
2018-04-18T11:52:07.489Z,25.75
2018-04-18T11:53:07.514Z,27.42
2018-04-18T11:54:07.535Z,27.22
2018-04-18T11:55:07.564Z,29.28
2018-04-18T11:56:07.590Z,25.96
2018-04-18T11:57:07.617Z,28.61
2018-04-18T11:58:07.649Z,29.57
2018-04-18T11:59:07.668Z,28.59
2018-04-18T12:00:07.699Z,28.11
2018-04-18T12:01:07.728Z,27.15
2018-04-18T12:02:07.756Z,27.75
2018-04-18T12:03:07.782Z,25.36
2018-04-18T12:04:07.837Z,27.51
2018-04-18T12:05:07.832Z,27.41
2018-04-18T12:06:07.856Z,28.86
2018-04-18T12:07:07.883Z,29.44
2018-04-18T12:08:07.910Z,26.93
2018-04-18T12:09:07.937Z,26.15
2018-04-18T12:10:07.975Z,26.34
2018-04-18T12:11:07.992Z,27.54
2018-04-18T12:12:08.020Z,26.23
2018-04-18T12:13:08.052Z,24.69
2018-04-18T12:14:08.726Z,25.49
2018-04-18T12:15:08.100Z,25.86
2018-04-18T12:16:08.129Z,25.85
2018-04-18T12:17:08.162Z,26.72
2018-04-18T12:18:08.182Z,27.51
2018-04-18T12:19:08.212Z,25.65
2018-04-18T12:20:08.238Z,25.98
2018-04-18T12:21:08.266Z,24.30
2018-04-18T12:22:08.294Z,25.60
2018-04-18T12:23:08.325Z,26.48
2018-04-18T12:24:08.346Z,25.08
2018-04-18T12:25:08.375Z,24.92
2018-04-18T12:26:08.402Z,24.33
2018-04-18T12:27:08.431Z,23.09
2018-04-18T12:28:08.461Z,23.08
2018-04-18T12:29:08.488Z,23.38
2018-04-18T12:30:08.513Z,23.22
2018-04-18T12:31:08.550Z,22.81
2018-04-18T12:32:08.570Z,22.05
2018-04-18T12:33:08.597Z,22.31
2018-04-18T12:34:08.624Z,21.52
2018-04-18T12:35:08.658Z,23.26
2018-04-18T12:36:08.687Z,23.43
2018-04-18T12:37:08.722Z,25.02
2018-04-18T12:38:08.735Z,23.86
2018-04-18T12:39:08.777Z,23.18
2018-04-18T12:40:08.805Z,23.18
2018-04-18T12:41:08.820Z,23.96
2018-04-18T12:42:08.857Z,23.70
2018-04-18T12:43:08.878Z,25.06
2018-04-18T12:44:08.909Z,23.19
2018-04-18T12:45:08.936Z,24.05
2018-04-18T12:46:08.971Z,24.26
2018-04-18T12:47:08.994Z,23.97
2018-04-18T12:48:09.030Z,22.02
2018-04-18T12:49:09.048Z,23.10
2018-04-18T12:50:09.082Z,22.81
2018-04-18T12:51:09.107Z,23.09
2018-04-18T12:52:09.140Z,22.31
2018-04-18T12:53:09.336Z,22.89